Time;durP1;ratioP1;P1;durP2;ratioP2;P2;SDS_P1;SDS_P2;PMS_P1;PMS_P2;Temp;Humidity;BMP_temperature;BMP_pressure;BME280_temperature;BME280_humidity;BME280_pressure;Samples;Min_cycle;Max_cycle;Signal;HPM_P1;HPM_P2
2023/11/26 00:02:26;;;;;;;0.50;0.50;;;;;;;0.90;80.80;96728.41;6172722;23;20000;-93
2023/11/26 00:04:52;;;;;;;1.00;0.60;;;;;;;0.87;80.43;96707.75;6176955;23;20008;-94
2023/11/26 00:07:18;;;;;;;0.98;0.80;;;;;;;0.90;81.44;96697.41;6175718;23;20018;-92
2023/11/26 00:09:43;;;;;;;0.85;0.70;;;;;;;0.98;79.68;96699.47;6174146;23;20035;-94
2023/11/26 00:12:09;;;;;;;1.00;0.60;;;;;;;0.79;79.22;96659.56;6175043;23;20008;-93
2023/11/26 00:14:38;;;;;;;0.90;0.70;;;;;;;0.83;80.16;96701.41;6173977;23;20030;-93
2023/11/26 00:17:07;;;;;;;0.50;0.50;;;;;;;0.77;80.92;96680.25;6198973;23;20019;-93
2023/11/26 00:19:35;;;;;;;0.93;0.60;;;;;;;0.72;80.45;96661.72;6175010;23;20011;-95
2023/11/26 00:22:10;;;;;;;0.40;0.40;;;;;;;0.85;79.57;96663.00;6199278;23;20004;-95
2023/11/26 00:24:36;;;;;;;1.13;0.90;;;;;;;0.71;79.98;96648.75;6177550;23;20016;-94
2023/11/26 00:27:02;;;;;;;0.93;0.70;;;;;;;0.92;80.47;96699.78;6173929;23;20086;-95
2023/11/26 00:29:28;;;;;;;0.65;0.60;;;;;;;0.71;80.81;96667.31;6175623;23;20011;-95
2023/11/26 00:32:00;;;;;;;0.80;0.60;;;;;;;0.80;80.17;96673.59;6174975;23;20419;-95
2023/11/26 00:34:25;;;;;;;0.65;0.60;;;;;;;0.83;80.11;96678.38;6200683;23;20011;-94
2023/11/26 00:36:51;;;;;;;0.65;0.60;;;;;;;0.76;79.85;96659.31;6174705;23;20474;-93
2023/11/26 00:39:17;;;;;;;0.95;0.77;;;;;;;0.88;80.11;96685.50;6174601;23;20086;-93
2023/11/26 00:41:44;;;;;;;0.50;0.50;;;;;;;0.99;80.03;96706.34;6174174;23;20398;-94
2023/11/26 00:44:13;;;;;;;0.50;0.50;;;;;;;0.93;80.42;96725.19;6176191;23;20011;-94
2023/11/26 00:46:38;;;;;;;0.50;0.50;;;;;;;0.71;80.80;96704.38;6199684;23;20000;-94
2023/11/26 00:49:06;;;;;;;2.72;0.52;;;;;;;0.70;79.76;96714.16;6174905;23;20000;-94
2023/11/26 00:51:31;;;;;;;0.45;0.45;;;;;;;0.79;79.75;96738.25;6173985;23;20023;-92
2023/11/26 00:53:59;;;;;;;0.40;0.40;;;;;;;0.99;80.39;96762.00;6174615;23;20008;-93
2023/11/26 00:56:26;;;;;;;0.55;0.55;;;;;;;0.76;79.89;96744.84;6174229;23;20375;-93
2023/11/26 00:58:52;;;;;;;0.50;0.50;;;;;;;0.67;80.00;96762.38;6179769;23;20000;-94
2023/11/26 01:01:18;;;;;;;0.57;0.50;;;;;;;0.58;80.89;96759.50;6177493;23;20007;-93
2023/11/26 01:03:48;;;;;;;0.50;0.50;;;;;;;0.57;81.48;96749.16;6175095;23;20000;-92
2023/11/26 01:06:17;;;;;;;0.50;0.50;;;;;;;0.73;80.40;96732.16;6176661;23;20012;-93
2023/11/26 01:08:42;;;;;;;0.85;0.60;;;;;;;0.75;80.52;96729.25;6197313;23;20011;-92
2023/11/26 01:11:14;;;;;;;0.50;0.50;;;;;;;0.66;80.67;96718.41;6172923;23;20004;-91
2023/11/26 01:13:40;;;;;;;0.50;0.50;;;;;;;0.64;81.21;96728.47;6172231;23;20011;-94
2023/11/26 01:16:07;;;;;;;0.50;0.50;;;;;;;0.67;81.46;96732.47;6197211;23;20020;-93
2023/11/26 01:18:32;;;;;;;0.52;0.52;;;;;;;0.70;80.56;96714.16;6196893;23;20012;-93
2023/11/26 01:20:58;;;;;;;1.40;0.50;;;;;;;0.77;80.75;96713.88;6172334;23;20000;-93
2023/11/26 01:23:24;;;;;;;0.50;0.50;;;;;;;0.95;80.86;96744.25;6171581;23;20035;-93
2023/11/26 01:25:49;;;;;;;0.50;0.50;;;;;;;0.89;81.12;96735.53;6172146;23;20035;-92
2023/11/26 01:28:18;;;;;;;0.60;0.60;;;;;;;0.88;80.78;96712.00;6197315;23;20004;-93
2023/11/26 01:30:44;;;;;;;0.75;0.70;;;;;;;0.97;80.29;96726.25;6198783;23;20000;-92
2023/11/26 01:33:10;;;;;;;0.60;0.60;;;;;;;0.90;79.77;96712.50;6172991;23;20032;-93
2023/11/26 01:35:41;;;;;;;0.68;0.63;;;;;;;0.87;80.12;96732.38;6198636;23;19996;-94
2023/11/26 01:38:06;;;;;;;0.50;0.50;;;;;;;0.76;80.40;96728.19;6198976;23;20004;-92
2023/11/26 01:40:38;;;;;;;3.03;0.60;;;;;;;0.80;81.19;96724.72;6171847;23;20349;-91
2023/11/26 01:43:08;;;;;;;1.42;0.60;;;;;;;0.82;81.20;96707.78;6173385;23;20000;-91
2023/11/26 01:45:34;;;;;;;0.70;0.60;;;;;;;0.92;81.20;96715.69;6196067;23;20008;-94
2023/11/26 01:48:00;;;;;;;1.17;0.60;;;;;;;0.92;80.94;96721.75;6173236;23;20026;-94
2023/11/26 01:50:29;;;;;;;0.50;0.50;;;;;;;0.86;80.36;96712.25;6196564;23;20011;-94
2023/11/26 01:52:55;;;;;;;1.42;0.73;;;;;;;1.11;80.68;96758.25;6173082;23;20030;-93
2023/11/26 01:55:23;;;;;;;0.70;0.63;;;;;;;1.11;80.04;96748.44;6173346;23;20398;-92
2023/11/26 01:57:48;;;;;;;0.60;0.50;;;;;;;1.04;79.73;96732.06;6173132;23;20000;-92
2023/11/26 02:00:16;;;;;;;0.63;0.63;;;;;;;0.96;80.43;96729.97;6171902;23;20027;-92
2023/11/26 02:02:42;;;;;;;0.55;0.55;;;;;;;0.96;79.67;96722.81;6197237;23;20007;-94
2023/11/26 02:05:11;;;;;;;0.50;0.50;;;;;;;1.08;79.47;96733.09;6171723;23;20504;-93
2023/11/26 02:07:40;;;;;;;0.50;0.50;;;;;;;1.01;79.79;96736.00;6172494;23;20004;-93
2023/11/26 02:10:09;;;;;;;0.50;0.50;;;;;;;1.08;80.28;96761.44;6173102;23;20011;-93
2023/11/26 02:12:35;;;;;;;0.88;0.60;;;;;;;1.04;80.69;96765.69;6172616;23;20069;-92
2023/11/26 02:15:01;;;;;;;0.55;0.55;;;;;;;1.14;80.39;96770.94;6172261;23;20020;-92
2023/11/26 02:17:27;;;;;;;0.50;0.50;;;;;;;1.19;80.39;96777.03;6172289;23;20000;-91
2023/11/26 02:19:53;;;;;;;0.50;0.50;;;;;;;1.09;80.21;96776.28;6171579;23;20062;-92
2023/11/26 02:22:18;;;;;;;0.88;0.60;;;;;;;1.15;80.26;96783.94;6196610;23;20083;-93
2023/11/26 02:27:31;;;;;;;1.02;0.70;;;;;;;1.31;79.15;96799.78;6206424;23;20043;-94
2023/11/26 02:29:59;;;;;;;0.88;0.60;;;;;;;1.41;78.88;96812.97;6173424;23;20003;-93
2023/11/26 02:32:27;;;;;;;0.60;0.50;;;;;;;1.32;79.38;96818.03;6173155;23;20430;-93
2023/11/26 02:34:58;;;;;;;0.73;0.60;;;;;;;1.28;79.62;96840.84;6174421;23;20046;-93
2023/11/26 02:37:23;;;;;;;0.50;0.50;;;;;;;1.11;79.46;96822.63;6173921;23;20000;-91
2023/11/26 02:39:49;;;;;;;0.70;0.70;;;;;;;1.06;80.17;96838.56;6172430;23;20042;-92
2023/11/26 02:42:15;;;;;;;0.50;0.50;;;;;;;1.18;80.32;96835.59;6172407;23;20004;-93
2023/11/26 02:44:40;;;;;;;0.70;0.57;;;;;;;1.23;78.93;96843.53;6172459;23;20007;-94
2023/11/26 02:47:07;;;;;;;0.50;0.50;;;;;;;1.36;79.25;96858.06;6171367;23;20003;-95
2023/11/26 02:49:33;;;;;;;0.73;0.60;;;;;;;1.27;79.52;96857.06;6173391;23;20079;-95
2023/11/26 02:51:59;;;;;;;0.60;0.60;;;;;;;1.29;79.82;96860.22;6173294;23;19996;-94
2023/11/26 02:54:25;;;;;;;0.60;0.60;;;;;;;1.15;79.33;96838.78;6174484;23;20449;-94
2023/11/26 02:56:53;;;;;;;1.35;1.00;;;;;;;1.30;80.03;96867.09;6174961;23;20055;-94
2023/11/26 02:59:18;;;;;;;1.17;0.90;;;;;;;1.24;80.08;96849.63;6173701;23;20038;-94
2023/11/26 03:01:44;;;;;;;0.65;0.63;;;;;;;1.38;79.79;96871.84;6173674;23;20000;-94
2023/11/26 03:04:10;;;;;;;1.15;0.70;;;;;;;1.46;79.81;96881.09;6173549;23;20011;-94
2023/11/26 03:06:36;;;;;;;0.57;0.55;;;;;;;1.40;79.18;96875.03;6172883;23;20022;-93
2023/11/26 03:09:29;;;;;;;0.70;0.60;;;;;;;1.42;78.97;96881.63;6173693;23;20074;-94
2023/11/26 03:14:31;;;;;;;0.60;0.60;;;;;;;1.25;78.69;96880.38;6206467;23;20104;-94
2023/11/26 03:16:58;;;;;;;0.88;0.60;;;;;;;1.40;79.04;96920.09;6173702;23;20000;-95
2023/11/26 03:19:24;;;;;;;0.50;0.50;;;;;;;1.20;79.57;96894.41;6173883;23;20008;-94
2023/11/26 03:21:50;;;;;;;1.48;0.90;;;;;;;1.28;79.25;96909.78;6173996;23;20066;-96
2023/11/26 03:24:17;;;;;;;0.60;0.60;;;;;;;1.26;79.01;96933.09;6173579;23;20052;-95
2023/11/26 03:26:42;;;;;;;0.40;0.40;;;;;;;1.09;79.82;96951.16;6198014;23;20013;-93
2023/11/26 03:29:09;;;;;;;0.50;0.50;;;;;;;0.95;80.08;96938.44;6173687;23;20343;-94
2023/11/26 03:31:35;;;;;;;0.40;0.40;;;;;;;0.95;80.39;96943.75;6198987;23;20439;-94
2023/11/26 03:34:06;;;;;;;0.47;0.47;;;;;;;1.08;80.93;96979.53;6173591;23;20039;-94
2023/11/26 03:36:32;;;;;;;0.50;0.50;;;;;;;0.92;80.65;96940.84;6176381;23;19996;-94
2023/11/26 03:38:58;;;;;;;0.47;0.47;;;;;;;1.10;79.93;96985.34;6172850;23;20004;-93
2023/11/26 03:41:23;;;;;;;0.80;0.50;;;;;;;1.10;80.62;96992.50;6173045;23;20066;-95
2023/11/26 03:43:50;;;;;;;0.40;0.40;;;;;;;0.98;80.45;96974.22;6174180;23;20087;-93
2023/11/26 03:46:18;;;;;;;0.68;0.43;;;;;;;1.04;80.30;96994.38;6174264;23;20008;-93
2023/11/26 03:48:45;;;;;;;0.50;0.50;;;;;;;1.05;80.92;96995.94;6175127;23;20358;-93
2023/11/26 03:51:18;;;;;;;1.02;0.70;;;;;;;1.20;80.25;97017.16;6174090;23;20011;-94
2023/11/26 03:53:43;;;;;;;0.60;0.60;;;;;;;1.00;80.21;96994.09;6198718;23;20006;-94
2023/11/26 03:56:10;;;;;;;0.50;0.50;;;;;;;0.76;81.65;96993.81;6175073;23;20478;-94
2023/11/26 03:58:35;;;;;;;1.27;0.80;;;;;;;1.06;81.65;97031.19;6173294;23;20031;-94
2023/11/26 04:01:02;;;;;;;0.70;0.60;;;;;;;1.13;81.02;97035.16;6172560;23;20349;-93
2023/11/26 04:03:28;;;;;;;1.27;0.65;;;;;;;0.89;80.49;97007.59;6173295;23;20089;-95
2023/11/26 04:05:54;;;;;;;1.98;1.00;;;;;;;1.14;81.04;97035.94;6172861;23;20000;-93
2023/11/26 04:08:19;;;;;;;1.58;1.00;;;;;;;1.30;81.19;97060.59;6172761;23;20083;-93
2023/11/26 04:10:45;;;;;;;2.15;1.38;;;;;;;1.17;80.84;97040.75;6173418;23;20000;-94
2023/11/26 04:13:11;;;;;;;1.63;1.13;;;;;;;1.25;80.84;97050.03;6173301;23;20007;-96
2023/11/26 04:15:43;;;;;;;1.98;1.20;;;;;;;1.29;80.72;97061.69;6167737;23;20043;-93
2023/11/26 04:18:09;;;;;;;3.55;1.77;;;;;;;1.33;80.52;97054.75;6171234;23;20351;-94
2023/11/26 04:20:35;;;;;;;2.00;0.95;;;;;;;1.51;80.15;97077.31;6167764;23;20080;-94
2023/11/26 04:23:01;;;;;;;1.38;0.90;;;;;;;1.52;79.43;97047.09;6193829;23;20034;-94
2023/11/26 04:25:27;;;;;;;1.35;0.88;;;;;;;1.67;79.46;97052.34;6167945;23;20062;-93
2023/11/26 04:27:52;;;;;;;1.25;0.82;;;;;;;1.46;79.66;97027.72;6168931;23;20008;-93
2023/11/26 04:30:18;;;;;;;2.45;0.95;;;;;;;1.57;79.08;97031.94;6192495;23;20046;-94
2023/11/26 04:32:44;;;;;;;1.30;1.02;;;;;;;1.67;79.07;97047.06;6169404;23;20051;-94
2023/11/26 04:35:09;;;;;;;1.52;1.00;;;;;;;1.65;78.95;97045.72;6168182;23;20408;-94
2023/11/26 04:37:35;;;;;;;1.92;1.35;;;;;;;1.73;78.04;97069.06;6167601;23;20075;-94
2023/11/26 04:40:00;;;;;;;1.55;1.10;;;;;;;1.68;78.08;97058.44;6167189;23;20067;-95
2023/11/26 04:42:26;;;;;;;1.10;0.93;;;;;;;1.77;77.95;97091.34;6168332;23;20131;-94
2023/11/26 04:44:54;;;;;;;0.95;0.80;;;;;;;1.49;77.74;97068.81;6169004;23;20001;-93
2023/11/26 04:47:20;;;;;;;1.20;0.85;;;;;;;1.76;78.75;97098.47;6168508;23;20082;-94
2023/11/26 04:49:46;;;;;;;1.05;0.90;;;;;;;1.57;77.33;97070.94;6167736;23;20005;-95
2023/11/26 04:52:11;;;;;;;1.52;1.00;;;;;;;1.53;77.90;97097.19;6166905;23;20000;-95
2023/11/26 04:54:37;;;;;;;1.05;0.80;;;;;;;1.38;78.88;97086.59;6167063;23;20089;-95
2023/11/26 04:57:04;;;;;;;1.33;1.00;;;;;;;1.36;78.70;97094.00;6192142;23;20088;-95
2023/11/26 04:59:29;;;;;;;1.17;0.90;;;;;;;1.44;79.36;97104.09;6167541;23;20019;-95
2023/11/26 05:01:55;;;;;;;0.90;0.88;;;;;;;1.47;79.22;97139.88;6193439;23;20427;-95
2023/11/26 05:04:21;;;;;;;2.13;1.38;;;;;;;1.25;78.93;97103.81;6192714;23;20007;-95
2023/11/26 05:06:47;;;;;;;1.35;1.05;;;;;;;1.37;79.31;97122.91;6191551;23;19997;-95
2023/11/26 05:09:13;;;;;;;2.38;1.52;;;;;;;1.31;78.60;97123.97;6192191;23;20035;-96
2023/11/26 05:11:41;;;;;;;1.05;0.70;;;;;;;1.33;78.65;97137.75;6167322;23;20003;-94
2023/11/26 05:14:07;;;;;;;1.27;0.95;;;;;;;1.15;78.50;97125.81;6171816;23;20095;-96
2023/11/26 05:16:33;;;;;;;1.25;0.75;;;;;;;1.02;79.24;97139.56;6174063;23;19995;-94
2023/11/26 05:18:59;;;;;;;1.48;0.90;;;;;;;1.13;79.91;97141.16;6172035;23;20350;-93
2023/11/26 05:21:24;;;;;;;0.80;0.70;;;;;;;0.90;79.50;97149.59;6172867;23;20101;-94
2023/11/26 05:23:50;;;;;;;1.60;1.10;;;;;;;0.91;79.62;97177.69;6172662;23;20004;-95
2023/11/26 05:26:16;;;;;;;1.30;0.98;;;;;;;0.70;80.84;97155.63;6173924;23;20015;-94
2023/11/26 05:28:42;;;;;;;1.63;0.98;;;;;;;0.87;79.96;97176.59;6172245;23;20365;-92
2023/11/26 05:31:08;;;;;;;2.80;1.20;;;;;;;0.94;80.09;97182.47;6173448;23;20087;-95
2023/11/26 05:33:34;;;;;;;1.42;0.95;;;;;;;0.77;80.80;97177.38;6173149;23;19996;-94
2023/11/26 05:36:03;;;;;;;1.48;1.02;;;;;;;0.92;80.85;97188.03;6173257;23;20015;-94
2023/11/26 05:38:29;;;;;;;1.15;0.82;;;;;;;0.90;80.08;97192.78;6174506;23;20000;-94
2023/11/26 05:40:55;;;;;;;0.85;0.80;;;;;;;0.91;80.04;97193.56;6171929;23;20000;-95
2023/11/26 05:43:21;;;;;;;0.40;0.40;;;;;;;0.81;80.59;97191.69;6173029;23;20034;-94
2023/11/26 05:45:47;;;;;;;0.47;0.47;;;;;;;0.83;80.52;97197.53;6173923;23;20055;-95
2023/11/26 05:48:12;;;;;;;0.50;0.50;;;;;;;0.95;81.17;97221.94;6172895;23;20004;-94
2023/11/26 05:50:39;;;;;;;0.52;0.52;;;;;;;0.76;80.36;97203.06;6173116;23;20087;-95
2023/11/26 05:53:04;;;;;;;0.52;0.52;;;;;;;1.06;80.58;97240.53;6174250;23;20086;-96
2023/11/26 05:55:30;;;;;;;1.17;0.77;;;;;;;1.00;80.33;97229.13;6174067;23;20411;-95
2023/11/26 05:57:56;;;;;;;0.65;0.65;;;;;;;1.04;79.64;97222.25;6172281;23;19996;-95
2023/11/26 06:00:21;;;;;;;1.10;0.80;;;;;;;1.11;79.20;97228.09;6172262;23;20026;-94
2023/11/26 06:02:50;;;;;;;0.70;0.70;;;;;;;1.17;79.20;97242.16;6173044;23;20453;-95
2023/11/26 06:05:16;;;;;;;0.70;0.70;;;;;;;1.21;79.72;97248.53;6174141;23;20003;-95
2023/11/26 06:07:44;;;;;;;0.80;0.70;;;;;;;1.14;79.67;97251.44;6173009;23;20058;-94
2023/11/26 06:10:11;;;;;;;1.23;0.93;;;;;;;1.03;80.09;97247.13;6196401;23;20004;-95
2023/11/26 06:12:36;;;;;;;1.80;1.30;;;;;;;1.18;79.78;97247.22;6173572;23;20381;-94
2023/11/26 06:15:02;;;;;;;1.77;1.00;;;;;;;1.31;79.00;97245.91;6172906;23;20040;-94
2023/11/26 06:17:28;;;;;;;1.50;1.02;;;;;;;1.48;79.46;97274.06;6196383;23;19996;-93
2023/11/26 06:19:54;;;;;;;1.33;1.20;;;;;;;1.48;79.16;97263.47;6172054;23;20000;-93
2023/11/26 06:22:20;;;;;;;2.42;1.50;;;;;;;1.56;78.54;97266.41;6173649;23;20011;-93
2023/11/26 06:24:51;;;;;;;1.58;1.17;;;;;;;1.55;78.64;97254.19;6172695;23;20043;-93
2023/11/26 06:27:16;;;;;;;2.40;1.30;;;;;;;1.77;79.03;97277.84;6174445;23;20020;-94
2023/11/26 06:29:42;;;;;;;3.08;1.83;;;;;;;1.84;78.35;97282.09;6173342;23;20000;-93
2023/11/26 06:32:09;;;;;;;3.45;2.00;;;;;;;2.08;77.67;97306.28;6199137;23;20024;-93
2023/11/26 06:34:36;;;;;;;3.58;1.65;;;;;;;2.12;77.67;97297.53;6176101;23;20075;-94
2023/11/26 06:37:04;;;;;;;2.50;1.90;;;;;;;1.87;77.16;97266.47;6175201;23;19992;-94
2023/11/26 06:39:30;;;;;;;2.72;1.15;;;;;;;2.16;76.58;97316.38;6180891;23;20008;-94
2023/11/26 06:41:56;;;;;;;1.73;1.20;;;;;;;2.09;76.21;97287.41;6176327;23;20423;-94
2023/11/26 06:44:21;;;;;;;2.20;1.45;;;;;;;2.09;76.11;97294.59;6200938;23;20027;-94
2023/11/26 06:46:50;;;;;;;3.15;1.60;;;;;;;2.09;76.53;97292.72;6176237;23;20489;-96
2023/11/26 06:49:16;;;;;;;4.85;1.85;;;;;;;2.00;76.47;97273.88;6176478;23;20356;-93
2023/11/26 06:51:45;;;;;;;4.00;1.70;;;;;;;2.07;76.27;97286.88;6175661;23;20030;-94
2023/11/26 06:54:16;;;;;;;3.85;1.67;;;;;;;2.04;76.10;97297.25;6175562;23;20007;-95
2023/11/26 06:56:41;;;;;;;3.67;2.08;;;;;;;1.84;77.03;97285.53;6176090;23;19999;-95
2023/11/26 06:59:10;;;;;;;4.15;2.15;;;;;;;1.93;76.17;97296.44;6174172;23;20000;-95
2023/11/26 07:01:39;;;;;;;3.60;2.20;;;;;;;2.11;76.96;97319.00;6175379;23;19996;-96
2023/11/26 07:04:05;;;;;;;3.97;2.47;;;;;;;2.06;76.67;97319.03;6200161;23;20007;-96
2023/11/26 07:06:31;;;;;;;4.03;2.50;;;;;;;1.90;77.02;97289.78;6174232;23;20431;-95
2023/11/26 07:08:59;;;;;;;6.55;3.80;;;;;;;1.82;77.30;97312.31;6175363;23;20007;-95
2023/11/26 07:11:28;;;;;;;3.90;2.17;;;;;;;1.74;77.57;97289.00;6175696;23;20000;-95
2023/11/26 07:13:54;;;;;;;3.22;1.77;;;;;;;1.88;77.29;97321.09;6200691;23;20004;-96
2023/11/26 07:16:21;;;;;;;2.97;1.80;;;;;;;1.77;77.74;97309.69;6174274;23;20383;-95
2023/11/26 07:18:47;;;;;;;2.08;1.55;;;;;;;1.78;78.02;97327.19;6174565;23;20000;-95
2023/11/26 07:21:13;;;;;;;2.38;1.60;;;;;;;1.85;77.71;97328.78;6174308;23;20027;-95
2023/11/26 07:23:39;;;;;;;4.15;2.10;;;;;;;1.94;76.50;97332.53;6175024;23;20004;-95
2023/11/26 07:26:11;;;;;;;11.23;7.80;;;;;;;2.02;76.42;97343.44;6199995;23;20004;-94
2023/11/26 07:28:37;;;;;;;5.18;2.47;;;;;;;1.94;76.16;97337.84;6200170;23;20409;-95
2023/11/26 07:31:03;;;;;;;4.10;2.40;;;;;;;1.92;76.06;97347.91;6200334;23;20035;-95
2023/11/26 07:33:30;;;;;;;8.07;5.47;;;;;;;1.99;75.97;97351.09;6175939;23;20000;-94
2023/11/26 07:35:57;;;;;;;4.85;3.25;;;;;;;2.02;76.31;97364.66;6176898;23;19992;-95
2023/11/26 07:38:22;;;;;;;4.57;2.88;;;;;;;1.95;75.89;97366.78;6175062;23;20038;-96
2023/11/26 07:40:49;;;;;;;3.55;2.53;;;;;;;2.00;75.61;97374.75;6175025;23;20008;-96
2023/11/26 07:43:15;;;;;;;5.55;2.90;;;;;;;1.91;75.84;97356.94;6176782;23;20011;-94
2023/11/26 07:45:44;;;;;;;4.10;2.67;;;;;;;2.08;75.25;97368.13;6174604;23;20008;-93
2023/11/26 07:48:09;;;;;;;4.40;2.70;;;;;;;2.12;75.33;97385.13;6175201;23;20004;-94
2023/11/26 08:01:58;;;;;;;5.38;3.97;;;;;;;2.33;72.66;97415.16;5855036;22;10579468;-95
2023/11/26 08:04:34;;;;;;;6.30;3.92;;;;;;;2.03;73.42;97405.25;6215874;23;20023;-94
2023/11/26 08:07:01;;;;;;;16.45;9.15;;;;;;;2.00;74.72;97440.31;6221550;23;20004;-96
2023/11/26 08:09:29;;;;;;;4.72;3.72;;;;;;;2.32;74.07;97449.94;6213928;23;20470;-94
2023/11/26 08:11:57;;;;;;;5.55;3.45;;;;;;;2.09;72.96;97441.38;6214098;23;20007;-94
2023/11/26 08:14:26;;;;;;;7.93;3.90;;;;;;;1.99;73.84;97444.81;6218226;23;20004;-96
2023/11/26 08:16:54;;;;;;;7.43;4.05;;;;;;;2.03;75.60;97458.34;6185064;23;20053;-96
2023/11/26 08:19:23;;;;;;;4.82;2.97;;;;;;;2.01;73.54;97484.34;6209736;23;20078;-95
2023/11/26 08:21:49;;;;;;;11.32;6.97;;;;;;;1.78;74.68;97470.44;6207713;23;20083;-94
2023/11/26 08:24:18;;;;;;;13.20;8.68;;;;;;;1.87;73.97;97481.38;6207271;23;20075;-95
2023/11/26 08:26:47;;;;;;;12.10;7.05;;;;;;;1.74;75.35;97487.97;6206842;23;20142;-95
2023/11/26 08:29:13;;;;;;;6.07;3.80;;;;;;;1.77;74.21;97506.00;6207839;23;20000;-96
2023/11/26 08:31:42;;;;;;;8.45;4.07;;;;;;;1.60;74.75;97503.53;6232665;23;19999;-95
2023/11/26 08:34:09;;;;;;;6.13;3.88;;;;;;;1.50;74.48;97490.22;6232762;23;20078;-95
2023/11/26 08:36:40;;;;;;;9.40;4.50;;;;;;;1.42;74.61;97519.84;6231955;23;19996;-95
2023/11/26 08:39:06;;;;;;;6.88;3.75;;;;;;;1.40;75.48;97509.50;6208717;23;20027;-93
2023/11/26 08:41:32;;;;;;;6.38;3.85;;;;;;;1.72;75.78;97547.63;6184719;23;20548;-94
2023/11/26 08:43:58;;;;;;;5.70;4.18;;;;;;;1.79;74.26;97533.09;6207023;23;20020;-94
2023/11/26 08:46:34;;;;;;;5.03;3.53;;;;;;;1.98;73.94;97554.69;6212767;23;19996;-96
2023/11/26 08:49:24;;;;;;;7.90;3.75;;;;;;;1.92;72.38;97520.41;6216205;23;20004;-96
2023/11/26 09:08:42;;;;;;;6.88;4.32;;;;;;;3.06;68.07;97578.94;4994191;27;1587442;-94
2023/11/26 09:11:08;;;;;;;10.38;5.65;;;;;;;3.10;68.50;97561.41;4979644;28;20124;-95
2023/11/26 09:13:34;;;;;;;7.78;4.53;;;;;;;3.11;67.61;97578.94;4995442;28;20052;-95
2023/11/26 09:16:00;;;;;;;6.97;4.60;;;;;;;2.96;66.13;97590.34;4994858;28;20037;-91
2023/11/26 09:18:26;;;;;;;9.95;4.35;;;;;;;3.19;66.33;97597.03;4978848;28;20026;-94
2023/11/26 09:20:51;;;;;;;6.15;3.95;;;;;;;3.24;64.94;97602.38;4995153;28;20060;-95
2023/11/26 09:23:17;;;;;;;7.15;4.22;;;;;;;3.27;65.08;97603.72;4995299;28;20405;-94
2023/11/26 09:25:43;;;;;;;5.63;3.35;;;;;;;3.26;63.19;97588.81;4995949;28;20030;-95
2023/11/26 09:28:09;;;;;;;6.15;3.67;;;;;;;3.38;64.38;97593.88;4978790;28;20081;-96
2023/11/26 09:30:35;;;;;;;6.55;3.80;;;;;;;3.63;64.05;97625.81;4979026;28;20406;-93
2023/11/26 09:33:00;;;;;;;5.22;3.35;;;;;;;3.62;63.46;97612.78;4979432;28;20415;-94
2023/11/26 09:35:26;;;;;;;4.00;2.97;;;;;;;3.55;62.56;97615.72;4996115;28;20033;-94
2023/11/26 09:37:52;;;;;;;5.15;3.53;;;;;;;3.85;62.60;97670.78;4995798;28;20029;-94
2023/11/26 09:40:18;;;;;;;5.63;3.25;;;;;;;3.55;62.34;97625.53;4995379;28;20042;-93
2023/11/26 09:42:48;;;;;;;4.03;2.95;;;;;;;3.50;62.56;97629.00;4995334;28;20061;-93
2023/11/26 09:45:13;;;;;;;6.18;3.40;;;;;;;3.53;62.36;97651.59;4979925;28;20054;-94
2023/11/26 09:47:39;;;;;;;6.75;3.70;;;;;;;3.30;64.53;97667.03;4993537;28;20037;-93
2023/11/26 09:50:05;;;;;;;5.82;3.92;;;;;;;3.15;63.33;97673.09;4994901;28;20141;-92
2023/11/26 09:52:31;;;;;;;7.40;4.53;;;;;;;3.21;62.01;97677.34;4978636;28;20041;-93
2023/11/26 09:55:02;;;;;;;8.30;4.53;;;;;;;3.26;63.73;97678.44;4994874;28;20034;-95
2023/11/26 09:57:31;;;;;;;6.43;4.47;;;;;;;3.17;61.89;97688.78;4981327;28;20021;-93
2023/11/26 09:59:57;;;;;;;5.93;3.58;;;;;;;3.27;63.07;97702.13;4994902;28;20515;-92
2023/11/26 10:02:23;;;;;;;5.78;3.67;;;;;;;3.20;61.16;97706.91;4975508;28;20116;-92
2023/11/26 10:04:50;;;;;;;4.70;3.38;;;;;;;3.33;63.50;97713.56;4975357;28;20102;-91
2023/11/26 10:07:16;;;;;;;5.97;3.67;;;;;;;3.26;61.25;97716.50;4978721;28;20054;-92
2023/11/26 10:10:03;;;;;;;5.30;3.50;;;;;;;3.35;60.51;97730.88;4969375;28;20026;-92
2023/11/26 10:12:31;;;;;;;5.60;3.53;;;;;;;3.05;62.83;97742.22;5008071;28;20124;-91
2023/11/26 10:15:05;;;;;;;5.13;3.35;;;;;;;2.86;61.67;97727.75;5009486;28;20006;-91
2023/11/26 10:17:34;;;;;;;8.35;3.92;;;;;;;2.91;63.45;97725.13;4975598;28;20124;-92
2023/11/26 10:20:17;;;;;;;14.98;7.30;;;;;;;3.07;65.24;97766.66;4985502;28;20025;-93
2023/11/26 10:22:47;;;;;;;10.48;4.20;;;;;;;3.18;62.02;97752.34;4971707;28;20539;-91
2023/11/26 10:25:13;;;;;;;6.35;3.72;;;;;;;3.28;62.12;97743.63;4991249;28;20054;-93
2023/11/26 10:27:39;;;;;;;6.40;3.45;;;;;;;3.47;62.58;97759.13;4970149;28;20033;-92
2023/11/26 10:30:08;;;;;;;4.68;3.00;;;;;;;3.18;60.53;97747.03;5000796;28;20030;-92
2023/11/26 10:32:33;;;;;;;6.05;3.55;;;;;;;2.90;62.70;97763.41;4970202;28;20029;-93
2023/11/26 10:35:01;;;;;;;8.63;3.72;;;;;;;2.99;61.53;97780.47;4982503;28;20391;-92
2023/11/26 10:37:27;;;;;;;5.88;3.30;;;;;;;2.79;63.31;97775.84;4981111;28;20112;-92
2023/11/26 10:39:53;;;;;;;5.13;3.60;;;;;;;2.72;63.04;97780.56;4980050;28;20096;-94
2023/11/26 10:42:19;;;;;;;4.53;3.30;;;;;;;2.86;62.59;97800.31;4996367;28;20030;-93
2023/11/26 10:44:48;;;;;;;5.45;3.95;;;;;;;2.87;63.67;97798.47;4964348;28;20030;-93
2023/11/26 10:47:14;;;;;;;6.90;4.65;;;;;;;2.65;63.29;97788.75;4964750;28;20018;-92
2023/11/26 10:49:40;;;;;;;6.53;4.22;;;;;;;2.60;63.74;97792.19;4979681;28;20052;-94
2023/11/26 10:52:29;;;;;;;5.75;3.83;;;;;;;2.62;62.28;97823.84;4964159;28;20026;-92
2023/11/26 10:55:07;;;;;;;7.60;4.05;;;;;;;2.54;62.39;97813.66;4983613;28;20061;-92
2023/11/26 10:57:40;;;;;;;8.25;4.28;;;;;;;2.58;63.66;97822.75;4980872;28;20029;-92
2023/11/26 11:00:18;;;;;;;5.00;3.67;;;;;;;2.49;61.85;97821.59;4964615;28;20025;-92
2023/11/26 11:02:45;;;;;;;8.60;4.00;;;;;;;2.45;61.97;97826.63;4965906;28;20479;-91
2023/11/26 11:05:11;;;;;;;4.80;3.72;;;;;;;2.32;63.81;97817.22;4979679;28;20111;-91
2023/11/26 11:07:37;;;;;;;5.50;4.07;;;;;;;2.15;63.45;97813.88;5008023;28;20052;-92
2023/11/26 11:10:24;;;;;;;7.90;4.93;;;;;;;2.39;64.22;97847.03;5045043;28;20111;-91
2023/11/26 11:13:11;;;;;;;5.30;3.75;;;;;;;2.52;64.43;97840.50;5061476;28;20111;-91
2023/11/26 11:15:39;;;;;;;7.35;4.25;;;;;;;2.67;64.60;97854.94;5046485;28;20020;-91
2023/11/26 11:18:26;;;;;;;6.05;3.42;;;;;;;2.84;62.59;97858.25;5044699;28;20024;-90
2023/11/26 11:21:12;;;;;;;8.68;5.43;;;;;;;2.78;61.59;97833.50;5076677;28;20036;-93
2023/11/26 11:23:53;;;;;;;6.38;3.78;;;;;;;2.95;62.01;97851.16;5044403;28;20035;-91
2023/11/26 11:26:20;;;;;;;5.70;3.28;;;;;;;3.13;61.24;97868.53;5045440;28;20506;-91
2023/11/26 11:28:48;;;;;;;4.47;3.15;;;;;;;2.99;60.32;97861.03;5045150;28;20024;-93
2023/11/26 11:31:17;;;;;;;5.50;3.63;;;;;;;3.12;61.80;97881.03;5060831;28;20024;-91
2023/11/26 11:34:01;;;;;;;6.65;3.70;;;;;;;3.14;60.28;97886.91;5061481;28;20060;-91
2023/11/26 11:36:42;;;;;;;5.35;3.25;;;;;;;3.30;59.83;97887.81;5077823;28;20473;-91
2023/11/26 11:39:14;;;;;;;11.35;6.40;;;;;;;3.23;60.65;97898.66;5077694;28;20038;-91
2023/11/26 11:41:55;;;;;;;5.70;3.38;;;;;;;3.12;60.23;97909.50;5042744;28;20067;-91
2023/11/26 11:44:31;;;;;;;9.98;4.30;;;;;;;2.95;61.18;97901.69;5057682;28;20402;-92
2023/11/26 11:47:05;;;;;;;6.05;3.60;;;;;;;2.79;60.17;97898.88;5024948;28;20449;-91
2023/11/26 11:49:46;;;;;;;5.38;3.50;;;;;;;2.91;60.48;97922.66;5025547;28;20024;-92
2023/11/26 11:52:15;;;;;;;5.20;3.50;;;;;;;2.85;61.28;97922.88;5063869;28;20028;-90
2023/11/26 11:55:03;;;;;;;3.88;2.92;;;;;;;3.17;61.08;97944.88;5044110;28;20035;-91
2023/11/26 11:57:29;;;;;;;4.95;2.92;;;;;;;3.04;60.87;97932.84;5076944;28;20024;-91
2023/11/26 12:03:32;;;;;;;3.47;2.80;;;;;;;3.10;59.82;97940.88;5053681;28;20516;-92
2023/11/26 12:06:17;;;;;;;5.25;3.17;;;;;;;2.90;60.29;97950.28;5095418;28;20040;-94
2023/11/26 12:08:44;;;;;;;4.68;3.08;;;;;;;2.93;60.48;97959.63;4979194;28;20046;-92
2023/11/26 12:11:11;;;;;;;6.25;3.40;;;;;;;2.94;61.07;97966.53;4979100;28;20030;-91
2023/11/26 12:13:43;;;;;;;5.03;3.97;;;;;;;2.66;62.80;97939.19;4988909;28;20026;-91
2023/11/26 12:16:08;;;;;;;;;;;;;;;2.93;62.61;97988.84;4983335;28;20124;-92
2023/11/26 12:18:34;;;;;;;5.50;2.95;;;;;;;2.70;60.32;97989.94;4998155;28;19948;-92
2023/11/26 12:20:59;;;;;;;5.50;3.45;;;;;;;2.53;61.48;97966.97;4997845;28;20029;-92
2023/11/26 12:23:32;;;;;;;4.78;3.45;;;;;;;2.47;61.34;97977.78;4998437;28;20037;-92